sensor_id;sensor_type;location;lat;lon;timestamp;pressure;altitude;pressure_sealevel;temperature;humidity
75717;BME280;64333;50.138;14.332;2023-05-07T00:01:37;98337.59;;;11.72;82.78
75717;BME280;64333;50.138;14.332;2023-05-07T00:04:03;98341.03;;;11.73;81.65
75717;BME280;64333;50.138;14.332;2023-05-07T00:06:29;98335.84;;;11.73;82.08
75717;BME280;64333;50.138;14.332;2023-05-07T00:08:55;98343.16;;;11.82;80.94
75717;BME280;64333;50.138;14.332;2023-05-07T00:11:21;98334.81;;;11.77;81.03
75717;BME280;64333;50.138;14.332;2023-05-07T00:13:47;98347.94;;;11.91;80.92
75717;BME280;64333;50.138;14.332;2023-05-07T00:16:12;98346.09;;;11.93;80.61
75717;BME280;64333;50.138;14.332;2023-05-07T00:18:38;98350.97;;;11.99;79.90
75717;BME280;64333;50.138;14.332;2023-05-07T00:21:03;98349.00;;;12.04;80.54
75717;BME280;64333;50.138;14.332;2023-05-07T00:23:29;98353.34;;;12.03;80.49
75717;BME280;64333;50.138;14.332;2023-05-07T00:25:54;98346.34;;;12.05;79.64
75717;BME280;64333;50.138;14.332;2023-05-07T00:28:19;98335.22;;;12.03;79.66
75717;BME280;64333;50.138;14.332;2023-05-07T00:30:45;98345.50;;;12.05;80.42
75717;BME280;64333;50.138;14.332;2023-05-07T00:33:10;98350.53;;;12.08;79.52
75717;BME280;64333;50.138;14.332;2023-05-07T00:35:35;98347.34;;;12.03;79.64
75717;BME280;64333;50.138;14.332;2023-05-07T00:38:01;98348.03;;;12.06;79.61
75717;BME280;64333;50.138;14.332;2023-05-07T00:40:26;98329.66;;;11.94;80.05
75717;BME280;64333;50.138;14.332;2023-05-07T00:42:51;98339.84;;;11.80;81.48
75717;BME280;64333;50.138;14.332;2023-05-07T00:45:23;98336.63;;;11.75;80.78
75717;BME280;64333;50.138;14.332;2023-05-07T00:47:51;98338.78;;;11.65;81.19
75717;BME280;64333;50.138;14.332;2023-05-07T00:50:16;98344.88;;;11.64;81.93
75717;BME280;64333;50.138;14.332;2023-05-07T00:52:42;98328.59;;;11.44;82.00
75717;BME280;64333;50.138;14.332;2023-05-07T00:55:07;98327.19;;;11.55;82.11
75717;BME280;64333;50.138;14.332;2023-05-07T00:57:36;98342.16;;;11.67;81.37
75717;BME280;64333;50.138;14.332;2023-05-07T01:00:04;98326.66;;;11.67;80.96
75717;BME280;64333;50.138;14.332;2023-05-07T01:02:30;98351.03;;;11.80;80.63
75717;BME280;64333;50.138;14.332;2023-05-07T01:04:56;98349.13;;;11.84;80.43
75717;BME280;64333;50.138;14.332;2023-05-07T01:07:22;98349.66;;;11.90;79.95
75717;BME280;64333;50.138;14.332;2023-05-07T01:09:48;98353.78;;;11.94;79.65
75717;BME280;64333;50.138;14.332;2023-05-07T01:12:14;98352.88;;;11.95;79.20
75717;BME280;64333;50.138;14.332;2023-05-07T01:14:40;98348.91;;;11.88;80.16
75717;BME280;64333;50.138;14.332;2023-05-07T01:17:06;98361.50;;;11.96;78.89
75717;BME280;64333;50.138;14.332;2023-05-07T01:19:32;98357.00;;;11.99;79.81
75717;BME280;64333;50.138;14.332;2023-05-07T01:22:02;98356.09;;;12.00;79.69
75717;BME280;64333;50.138;14.332;2023-05-07T01:24:29;98351.50;;;12.05;79.52
75717;BME280;64333;50.138;14.332;2023-05-07T01:26:55;98355.94;;;12.03;79.40
75717;BME280;64333;50.138;14.332;2023-05-07T01:29:20;98363.69;;;12.03;79.75
75717;BME280;64333;50.138;14.332;2023-05-07T01:31:46;98346.50;;;12.02;78.94
75717;BME280;64333;50.138;14.332;2023-05-07T01:34:14;98355.81;;;12.06;79.20
75717;BME280;64333;50.138;14.332;2023-05-07T01:36:42;98358.22;;;12.09;79.29
75717;BME280;64333;50.138;14.332;2023-05-07T01:39:09;98350.63;;;12.06;78.73
75717;BME280;64333;50.138;14.332;2023-05-07T01:41:35;98348.78;;;12.08;78.75
75717;BME280;64333;50.138;14.332;2023-05-07T01:44:01;98361.56;;;12.11;78.46
75717;BME280;64333;50.138;14.332;2023-05-07T01:46:28;98364.03;;;12.14;78.67
75717;BME280;64333;50.138;14.332;2023-05-07T01:48:55;98356.38;;;12.11;78.76
75717;BME280;64333;50.138;14.332;2023-05-07T01:51:21;98360.53;;;12.15;78.46
75717;BME280;64333;50.138;14.332;2023-05-07T01:53:47;98359.78;;;12.13;78.20
75717;BME280;64333;50.138;14.332;2023-05-07T01:56:16;98366.75;;;12.11;78.08
75717;BME280;64333;50.138;14.332;2023-05-07T01:58:42;98357.94;;;12.15;78.65
75717;BME280;64333;50.138;14.332;2023-05-07T02:01:08;98359.66;;;12.15;77.60
75717;BME280;64333;50.138;14.332;2023-05-07T02:03:33;98371.63;;;12.17;77.52
75717;BME280;64333;50.138;14.332;2023-05-07T02:05:58;98364.94;;;12.13;78.11
75717;BME280;64333;50.138;14.332;2023-05-07T02:08:24;98369.97;;;12.16;77.73
75717;BME280;64333;50.138;14.332;2023-05-07T02:10:49;98376.81;;;12.17;77.44
75717;BME280;64333;50.138;14.332;2023-05-07T02:13:16;98369.97;;;12.16;78.37
75717;BME280;64333;50.138;14.332;2023-05-07T02:15:41;98362.97;;;12.35;77.09
75717;BME280;64333;50.138;14.332;2023-05-07T02:18:08;98367.31;;;12.18;78.65
75717;BME280;64333;50.138;14.332;2023-05-07T02:20:34;98366.31;;;12.20;78.40
75717;BME280;64333;50.138;14.332;2023-05-07T02:23:00;98363.09;;;12.15;77.90
75717;BME280;64333;50.138;14.332;2023-05-07T02:25:25;98373.31;;;12.18;77.92
75717;BME280;64333;50.138;14.332;2023-05-07T02:27:51;98366.44;;;12.17;78.06
75717;BME280;64333;50.138;14.332;2023-05-07T02:30:16;98358.06;;;11.95;78.18
75717;BME280;64333;50.138;14.332;2023-05-07T02:32:41;98358.75;;;11.99;77.85
75717;BME280;64333;50.138;14.332;2023-05-07T02:35:07;98364.00;;;11.97;77.96
75717;BME280;64333;50.138;14.332;2023-05-07T02:37:33;98359.09;;;11.91;78.42
75717;BME280;64333;50.138;14.332;2023-05-07T02:39:58;98368.47;;;11.94;78.69
75717;BME280;64333;50.138;14.332;2023-05-07T02:42:23;98367.78;;;11.90;78.13
75717;BME280;64333;50.138;14.332;2023-05-07T02:44:49;98376.19;;;11.95;77.89
75717;BME280;64333;50.138;14.332;2023-05-07T02:47:15;98372.53;;;11.99;78.34
75717;BME280;64333;50.138;14.332;2023-05-07T02:49:40;98368.81;;;12.05;78.38
75717;BME280;64333;50.138;14.332;2023-05-07T02:52:06;98364.31;;;12.08;77.55
75717;BME280;64333;50.138;14.332;2023-05-07T02:54:31;98364.44;;;12.05;78.66
75717;BME280;64333;50.138;14.332;2023-05-07T02:56:57;98373.44;;;11.98;78.00
75717;BME280;64333;50.138;14.332;2023-05-07T02:59:23;98381.88;;;12.02;77.37
75717;BME280;64333;50.138;14.332;2023-05-07T03:01:48;98377.41;;;12.05;77.99
75717;BME280;64333;50.138;14.332;2023-05-07T03:04:14;98378.41;;;12.03;77.88
75717;BME280;64333;50.138;14.332;2023-05-07T03:06:39;98379.22;;;11.86;78.70
75717;BME280;64333;50.138;14.332;2023-05-07T03:09:05;98376.63;;;11.86;78.71
75717;BME280;64333;50.138;14.332;2023-05-07T03:11:30;98371.13;;;11.92;78.50
75717;BME280;64333;50.138;14.332;2023-05-07T03:13:56;98359.88;;;11.93;78.90
75717;BME280;64333;50.138;14.332;2023-05-07T03:16:21;98375.88;;;12.01;78.27
75717;BME280;64333;50.138;14.332;2023-05-07T03:18:46;98378.41;;;12.03;78.62
75717;BME280;64333;50.138;14.332;2023-05-07T03:21:12;98381.81;;;12.03;78.82
75717;BME280;64333;50.138;14.332;2023-05-07T03:23:37;98380.09;;;12.04;78.63
75717;BME280;64333;50.138;14.332;2023-05-07T03:26:02;98369.16;;;11.97;78.63
75717;BME280;64333;50.138;14.332;2023-05-07T03:28:28;98380.59;;;11.93;79.25
75717;BME280;64333;50.138;14.332;2023-05-07T03:30:53;98379.53;;;11.97;78.96
75717;BME280;64333;50.138;14.332;2023-05-07T03:33:19;98375.25;;;11.96;79.19
75717;BME280;64333;50.138;14.332;2023-05-07T03:35:44;98367.31;;;11.82;78.69
75717;BME280;64333;50.138;14.332;2023-05-07T03:38:10;98366.38;;;11.66;79.52
75717;BME280;64333;50.138;14.332;2023-05-07T03:40:35;98375.44;;;11.75;79.56
75717;BME280;64333;50.138;14.332;2023-05-07T03:43:00;98378.75;;;11.60;80.18
75717;BME280;64333;50.138;14.332;2023-05-07T03:45:26;98382.22;;;11.40;80.32
75717;BME280;64333;50.138;14.332;2023-05-07T03:47:51;98378.72;;;11.41;81.06
75717;BME280;64333;50.138;14.332;2023-05-07T03:50:16;98382.56;;;11.33;80.82
75717;BME280;64333;50.138;14.332;2023-05-07T03:52:42;98378.25;;;11.33;81.69
75717;BME280;64333;50.138;14.332;2023-05-07T03:55:08;98372.16;;;11.34;80.86
75717;BME280;64333;50.138;14.332;2023-05-07T03:57:33;98366.81;;;11.37;80.92
75717;BME280;64333;50.138;14.332;2023-05-07T03:59:59;98359.84;;;11.39;80.08
75717;BME280;64333;50.138;14.332;2023-05-07T04:02:24;98368.94;;;11.29;80.38
75717;BME280;64333;50.138;14.332;2023-05-07T04:04:49;98388.91;;;11.26;80.31
75717;BME280;64333;50.138;14.332;2023-05-07T04:07:15;98378.84;;;11.38;81.00
75717;BME280;64333;50.138;14.332;2023-05-07T04:09:41;98387.25;;;11.43;80.82
75717;BME280;64333;50.138;14.332;2023-05-07T04:12:06;98385.75;;;11.58;80.01
75717;BME280;64333;50.138;14.332;2023-05-07T04:14:31;98385.13;;;11.51;79.14
75717;BME280;64333;50.138;14.332;2023-05-07T04:17:00;98389.88;;;11.42;80.71
75717;BME280;64333;50.138;14.332;2023-05-07T04:19:26;98390.94;;;11.38;79.69
75717;BME280;64333;50.138;14.332;2023-05-07T04:21:51;98395.63;;;11.48;79.05
75717;BME280;64333;50.138;14.332;2023-05-07T04:24:16;98401.56;;;11.32;77.92
75717;BME280;64333;50.138;14.332;2023-05-07T04:26:42;98409.06;;;11.38;78.28
75717;BME280;64333;50.138;14.332;2023-05-07T04:29:07;98415.84;;;11.40;77.77
75717;BME280;64333;50.138;14.332;2023-05-07T04:31:33;98412.81;;;11.49;78.41
75717;BME280;64333;50.138;14.332;2023-05-07T04:33:58;98410.88;;;11.54;77.95
75717;BME280;64333;50.138;14.332;2023-05-07T04:36:23;98408.09;;;11.59;76.42
75717;BME280;64333;50.138;14.332;2023-05-07T04:38:52;98408.41;;;11.51;76.55
75717;BME280;64333;50.138;14.332;2023-05-07T04:41:18;98412.16;;;11.64;76.16
75717;BME280;64333;50.138;14.332;2023-05-07T04:43:43;98414.50;;;11.50;75.94
75717;BME280;64333;50.138;14.332;2023-05-07T04:46:08;98416.41;;;11.65;75.48
75717;BME280;64333;50.138;14.332;2023-05-07T04:48:34;98423.78;;;11.74;74.42
75717;BME280;64333;50.138;14.332;2023-05-07T04:50:59;98415.84;;;11.77;75.16
75717;BME280;64333;50.138;14.332;2023-05-07T04:53:25;98418.47;;;11.59;74.71
75717;BME280;64333;50.138;14.332;2023-05-07T04:55:57;98419.91;;;11.64;75.33
75717;BME280;64333;50.138;14.332;2023-05-07T04:58:23;98421.53;;;11.67;75.24
75717;BME280;64333;50.138;14.332;2023-05-07T05:00:49;98414.63;;;11.67;74.98
75717;BME280;64333;50.138;14.332;2023-05-07T05:03:14;98425.19;;;11.63;74.45
75717;BME280;64333;50.138;14.332;2023-05-07T05:05:40;98425.03;;;11.66;74.10
75717;BME280;64333;50.138;14.332;2023-05-07T05:08:05;98433.00;;;11.61;74.71
75717;BME280;64333;50.138;14.332;2023-05-07T05:10:30;98429.66;;;11.78;75.07
75717;BME280;64333;50.138;14.332;2023-05-07T05:12:56;98433.34;;;11.91;74.33
75717;BME280;64333;50.138;14.332;2023-05-07T05:15:21;98439.97;;;11.96;73.71
75717;BME280;64333;50.138;14.332;2023-05-07T05:17:47;98439.44;;;11.90;72.97
75717;BME280;64333;50.138;14.332;2023-05-07T05:20:12;98445.03;;;11.99;73.07
75717;BME280;64333;50.138;14.332;2023-05-07T05:22:38;98442.75;;;12.10;72.63
75717;BME280;64333;50.138;14.332;2023-05-07T05:25:04;98444.59;;;12.08;72.47
75717;BME280;64333;50.138;14.332;2023-05-07T05:27:29;98443.22;;;12.18;72.14
75717;BME280;64333;50.138;14.332;2023-05-07T05:29:55;98450.50;;;12.10;72.42
75717;BME280;64333;50.138;14.332;2023-05-07T05:32:20;98445.28;;;12.12;72.47
75717;BME280;64333;50.138;14.332;2023-05-07T05:34:46;98443.44;;;12.14;71.83
75717;BME280;64333;50.138;14.332;2023-05-07T05:37:11;98446.31;;;12.26;72.08
75717;BME280;64333;50.138;14.332;2023-05-07T05:39:36;98437.44;;;12.13;72.56
75717;BME280;64333;50.138;14.332;2023-05-07T05:42:02;98436.81;;;12.44;71.75
75717;BME280;64333;50.138;14.332;2023-05-07T05:44:27;98443.88;;;12.57;71.35
75717;BME280;64333;50.138;14.332;2023-05-07T05:46:53;98436.28;;;12.88;70.21
75717;BME280;64333;50.138;14.332;2023-05-07T05:49:20;98449.53;;;13.16;69.14
75717;BME280;64333;50.138;14.332;2023-05-07T05:51:46;98446.63;;;13.22;68.81
75717;BME280;64333;50.138;14.332;2023-05-07T05:54:12;98451.00;;;13.05;66.92
75717;BME280;64333;50.138;14.332;2023-05-07T05:56:37;98454.22;;;13.25;67.60
75717;BME280;64333;50.138;14.332;2023-05-07T05:59:03;98458.16;;;13.17;67.38
75717;BME280;64333;50.138;14.332;2023-05-07T06:01:28;98445.38;;;13.29;67.01
75717;BME280;64333;50.138;14.332;2023-05-07T06:03:54;98455.22;;;13.40;66.81
75717;BME280;64333;50.138;14.332;2023-05-07T06:06:19;98458.22;;;13.32;66.41
75717;BME280;64333;50.138;14.332;2023-05-07T06:08:44;98470.03;;;13.38;66.35
75717;BME280;64333;50.138;14.332;2023-05-07T06:11:10;98467.00;;;13.30;66.25
75717;BME280;64333;50.138;14.332;2023-05-07T06:13:35;98468.59;;;13.32;66.45
75717;BME280;64333;50.138;14.332;2023-05-07T06:16:01;98474.72;;;13.47;66.50
75717;BME280;64333;50.138;14.332;2023-05-07T06:18:26;98476.81;;;13.40;66.36
75717;BME280;64333;50.138;14.332;2023-05-07T06:20:52;98482.56;;;13.30;66.55
75717;BME280;64333;50.138;14.332;2023-05-07T06:23:17;98472.81;;;13.50;66.52
75717;BME280;64333;50.138;14.332;2023-05-07T06:25:48;98481.06;;;13.74;64.95
75717;BME280;64333;50.138;14.332;2023-05-07T06:28:13;98483.31;;;13.32;67.10
75717;BME280;64333;50.138;14.332;2023-05-07T06:30:38;98491.47;;;13.24;66.89
75717;BME280;64333;50.138;14.332;2023-05-07T06:33:05;98492.88;;;12.97;68.00
75717;BME280;64333;50.138;14.332;2023-05-07T06:35:30;98492.88;;;13.14;67.82
75717;BME280;64333;50.138;14.332;2023-05-07T06:37:56;98496.53;;;13.27;67.92
75717;BME280;64333;50.138;14.332;2023-05-07T06:40:21;98494.91;;;13.25;67.71
75717;BME280;64333;50.138;14.332;2023-05-07T06:42:46;98502.34;;;13.48;64.95
75717;BME280;64333;50.138;14.332;2023-05-07T06:45:12;98500.06;;;13.74;64.27
75717;BME280;64333;50.138;14.332;2023-05-07T06:47:37;98502.78;;;14.04;62.99
75717;BME280;64333;50.138;14.332;2023-05-07T06:50:03;98510.09;;;14.13;62.17
75717;BME280;64333;50.138;14.332;2023-05-07T06:52:28;98508.84;;;14.20;62.03
75717;BME280;64333;50.138;14.332;2023-05-07T06:54:53;98511.44;;;14.20;61.92
75717;BME280;64333;50.138;14.332;2023-05-07T06:57:19;98513.91;;;14.23;61.93
75717;BME280;64333;50.138;14.332;2023-05-07T06:59:44;98509.25;;;14.43;61.42
75717;BME280;64333;50.138;14.332;2023-05-07T07:02:09;98509.50;;;14.54;60.97
75717;BME280;64333;50.138;14.332;2023-05-07T07:04:35;98516.63;;;14.66;60.51
75717;BME280;64333;50.138;14.332;2023-05-07T07:07:00;98515.44;;;14.72;59.22
75717;BME280;64333;50.138;14.332;2023-05-07T07:09:26;98520.25;;;14.64;59.75
75717;BME280;64333;50.138;14.332;2023-05-07T07:11:51;98519.78;;;14.26;61.13
75717;BME280;64333;50.138;14.332;2023-05-07T07:14:16;98531.31;;;14.21;62.34
75717;BME280;64333;50.138;14.332;2023-05-07T07:16:42;98517.00;;;14.29;62.46
75717;BME280;64333;50.138;14.332;2023-05-07T07:19:07;98509.94;;;13.68;62.97
75717;BME280;64333;50.138;14.332;2023-05-07T07:21:33;98518.75;;;13.48;64.04
75717;BME280;64333;50.138;14.332;2023-05-07T07:23:59;98528.72;;;13.23;64.50
75717;BME280;64333;50.138;14.332;2023-05-07T07:26:25;98531.31;;;13.06;66.02
75717;BME280;64333;50.138;14.332;2023-05-07T07:28:51;98528.72;;;13.06;66.91
75717;BME280;64333;50.138;14.332;2023-05-07T07:31:16;98528.25;;;13.32;65.81
75717;BME280;64333;50.138;14.332;2023-05-07T07:33:41;98525.16;;;13.58;64.75
75717;BME280;64333;50.138;14.332;2023-05-07T07:36:07;98527.41;;;13.64;63.88
75717;BME280;64333;50.138;14.332;2023-05-07T07:38:33;98530.19;;;13.61;64.26
75717;BME280;64333;50.138;14.332;2023-05-07T07:40:59;98527.16;;;13.53;64.47
75717;BME280;64333;50.138;14.332;2023-05-07T07:43:24;98535.50;;;13.75;64.82
75717;BME280;64333;50.138;14.332;2023-05-07T07:45:50;98526.66;;;13.79;63.60
75717;BME280;64333;50.138;14.332;2023-05-07T07:48:16;98532.50;;;13.83;63.93
75717;BME280;64333;50.138;14.332;2023-05-07T07:50:41;98535.28;;;13.95;63.85
75717;BME280;64333;50.138;14.332;2023-05-07T07:53:07;98544.84;;;14.10;63.43
75717;BME280;64333;50.138;14.332;2023-05-07T07:55:32;98535.69;;;14.20;62.67
75717;BME280;64333;50.138;14.332;2023-05-07T07:57:57;98542.91;;;14.31;63.39
75717;BME280;64333;50.138;14.332;2023-05-07T08:00:23;98542.91;;;14.46;61.71
75717;BME280;64333;50.138;14.332;2023-05-07T08:02:48;98548.91;;;14.31;60.90
75717;BME280;64333;50.138;14.332;2023-05-07T08:05:14;98553.22;;;14.00;60.64
75717;BME280;64333;50.138;14.332;2023-05-07T08:07:40;98559.09;;;14.03;61.02
75717;BME280;64333;50.138;14.332;2023-05-07T08:10:06;98546.66;;;13.93;61.77
75717;BME280;64333;50.138;14.332;2023-05-07T08:12:31;98549.47;;;13.73;63.10
75717;BME280;64333;50.138;14.332;2023-05-07T08:14:57;98538.78;;;13.79;62.70
75717;BME280;64333;50.138;14.332;2023-05-07T08:17:22;98558.00;;;13.75;63.16
75717;BME280;64333;50.138;14.332;2023-05-07T08:19:48;98546.25;;;13.85;62.59
75717;BME280;64333;50.138;14.332;2023-05-07T08:22:13;98557.13;;;13.76;63.22
75717;BME280;64333;50.138;14.332;2023-05-07T08:24:40;98558.88;;;13.75;62.97
75717;BME280;64333;50.138;14.332;2023-05-07T08:27:05;98554.47;;;14.25;62.46
75717;BME280;64333;50.138;14.332;2023-05-07T08:29:30;98565.69;;;14.41;61.01
75717;BME280;64333;50.138;14.332;2023-05-07T08:31:56;98563.69;;;14.31;61.94
75717;BME280;64333;50.138;14.332;2023-05-07T08:34:22;98571.38;;;14.63;61.28
75717;BME280;64333;50.138;14.332;2023-05-07T08:36:47;98567.53;;;14.70;59.60
75717;BME280;64333;50.138;14.332;2023-05-07T08:39:15;98569.03;;;14.74;59.47
75717;BME280;64333;50.138;14.332;2023-05-07T08:41:44;98581.78;;;14.48;60.47
75717;BME280;64333;50.138;14.332;2023-05-07T08:44:14;98577.97;;;14.84;60.11
75717;BME280;64333;50.138;14.332;2023-05-07T08:46:41;98578.75;;;14.86;59.68
75717;BME280;64333;50.138;14.332;2023-05-07T08:49:07;98576.16;;;14.71;60.17
75717;BME280;64333;50.138;14.332;2023-05-07T08:51:33;98571.28;;;14.96;58.95
75717;BME280;64333;50.138;14.332;2023-05-07T08:53:59;98572.72;;;15.15;58.30
75717;BME280;64333;50.138;14.332;2023-05-07T08:56:26;98585.25;;;15.09;57.75
75717;BME280;64333;50.138;14.332;2023-05-07T08:58:51;98581.19;;;14.89;58.72
75717;BME280;64333;50.138;14.332;2023-05-07T09:01:21;98575.84;;;15.22;57.95
75717;BME280;64333;50.138;14.332;2023-05-07T09:03:47;98587.06;;;15.22;57.29
75717;BME280;64333;50.138;14.332;2023-05-07T09:06:12;98588.06;;;15.20;57.32
75717;BME280;64333;50.138;14.332;2023-05-07T09:08:38;98586.78;;;15.42;57.47
75717;BME280;64333;50.138;14.332;2023-05-07T09:11:03;98588.00;;;15.21;57.14
75717;BME280;64333;50.138;14.332;2023-05-07T09:13:29;98584.81;;;15.89;55.33
75717;BME280;64333;50.138;14.332;2023-05-07T09:15:55;98587.50;;;16.84;53.73
75717;BME280;64333;50.138;14.332;2023-05-07T09:18:21;98587.13;;;17.68;50.98
75717;BME280;64333;50.138;14.332;2023-05-07T09:20:46;98585.66;;;18.39;49.22
75717;BME280;64333;50.138;14.332;2023-05-07T09:23:11;98583.47;;;18.08;48.45
75717;BME280;64333;50.138;14.332;2023-05-07T09:25:37;98594.84;;;18.44;47.23
75717;BME280;64333;50.138;14.332;2023-05-07T09:28:04;98594.75;;;18.21;48.02
75717;BME280;64333;50.138;14.332;2023-05-07T09:30:31;98589.22;;;17.88;48.95
75717;BME280;64333;50.138;14.332;2023-05-07T09:33:02;98601.75;;;18.08;48.20
75717;BME280;64333;50.138;14.332;2023-05-07T09:35:29;98595.63;;;17.84;48.52
75717;BME280;64333;50.138;14.332;2023-05-07T09:37:59;98596.13;;;17.76;49.16
75717;BME280;64333;50.138;14.332;2023-05-07T09:40:27;98586.41;;;17.66;48.87
75717;BME280;64333;50.138;14.332;2023-05-07T09:42:54;98590.34;;;17.59;50.00
75717;BME280;64333;50.138;14.332;2023-05-07T09:45:26;98598.06;;;17.48;50.15
75717;BME280;64333;50.138;14.332;2023-05-07T09:47:55;98602.06;;;17.27;50.28
75717;BME280;64333;50.138;14.332;2023-05-07T09:50:26;98595.25;;;17.51;50.34
75717;BME280;64333;50.138;14.332;2023-05-07T09:52:52;98596.13;;;17.64;49.79
75717;BME280;64333;50.138;14.332;2023-05-07T09:55:19;98594.34;;;17.89;50.30
75717;BME280;64333;50.138;14.332;2023-05-07T09:57:45;98594.44;;;17.88;49.89
75717;BME280;64333;50.138;14.332;2023-05-07T10:00:11;98594.03;;;17.94;49.36
75717;BME280;64333;50.138;14.332;2023-05-07T10:02:39;98589.31;;;17.74;49.08
75717;BME280;64333;50.138;14.332;2023-05-07T10:05:12;98593.16;;;17.56;49.45
75717;BME280;64333;50.138;14.332;2023-05-07T10:07:37;98589.72;;;16.90;52.02
75717;BME280;64333;50.138;14.332;2023-05-07T10:10:04;98583.50;;;16.79;51.42
75717;BME280;64333;50.138;14.332;2023-05-07T10:12:30;98587.56;;;16.97;52.30
75717;BME280;64333;50.138;14.332;2023-05-07T10:15:03;98603.25;;;16.83;53.26
75717;BME280;64333;50.138;14.332;2023-05-07T10:17:29;98596.47;;;16.80;52.21
75717;BME280;64333;50.138;14.332;2023-05-07T10:19:55;98604.69;;;16.74;53.44
75717;BME280;64333;50.138;14.332;2023-05-07T10:22:21;98602.22;;;17.11;52.47
75717;BME280;64333;50.138;14.332;2023-05-07T10:24:48;98602.16;;;17.77;50.84
75717;BME280;64333;50.138;14.332;2023-05-07T10:27:17;98600.16;;;18.43;48.67
75717;BME280;64333;50.138;14.332;2023-05-07T10:32:39;98593.03;;;19.17;45.73
75717;BME280;64333;50.138;14.332;2023-05-07T10:35:26;98591.94;;;19.43;45.36
75717;BME280;64333;50.138;14.332;2023-05-07T10:37:54;98596.38;;;19.42;44.40
75717;BME280;64333;50.138;14.332;2023-05-07T10:40:20;98591.16;;;19.30;44.04
75717;BME280;64333;50.138;14.332;2023-05-07T10:43:00;98578.81;;;19.08;45.75
75717;BME280;64333;50.138;14.332;2023-05-07T10:45:27;98592.63;;;18.87;46.09
75717;BME280;64333;50.138;14.332;2023-05-07T10:48:12;98579.25;;;18.79;46.84
75717;BME280;64333;50.138;14.332;2023-05-07T10:50:39;98585.91;;;18.83;45.32
75717;BME280;64333;50.138;14.332;2023-05-07T10:53:25;98588.59;;;18.94;46.60
75717;BME280;64333;50.138;14.332;2023-05-07T10:58:44;98588.56;;;20.32;42.71
75717;BME280;64333;50.138;14.332;2023-05-07T11:01:09;98595.38;;;21.10;41.66
75717;BME280;64333;50.138;14.332;2023-05-07T11:04:17;98594.69;;;22.31;38.30
75717;BME280;64333;50.138;14.332;2023-05-07T11:15:06;98590.50;;;21.37;40.07
75717;BME280;64333;50.138;14.332;2023-05-07T11:17:32;98583.97;;;20.67;41.53
75717;BME280;64333;50.138;14.332;2023-05-07T11:20:00;98585.44;;;20.27;42.48
75717;BME280;64333;50.138;14.332;2023-05-07T11:25:03;98594.88;;;19.27;44.08
75717;BME280;64333;50.138;14.332;2023-05-07T11:27:29;98588.22;;;19.11;45.54
75717;BME280;64333;50.138;14.332;2023-05-07T11:29:55;98587.03;;;19.15;45.56
75717;BME280;64333;50.138;14.332;2023-05-07T11:32:24;98588.09;;;19.12;45.53
75717;BME280;64333;50.138;14.332;2023-05-07T11:34:59;98583.66;;;19.25;45.43
75717;BME280;64333;50.138;14.332;2023-05-07T11:37:26;98569.56;;;18.68;47.48
75717;BME280;64333;50.138;14.332;2023-05-07T11:40:06;98578.19;;;18.45;48.20
75717;BME280;64333;50.138;14.332;2023-05-07T11:42:33;98586.09;;;19.16;45.45
75717;BME280;64333;50.138;14.332;2023-05-07T11:44:59;98589.16;;;19.57;45.49
75717;BME280;64333;50.138;14.332;2023-05-07T11:47:25;98588.53;;;20.43;42.90
75717;BME280;64333;50.138;14.332;2023-05-07T11:49:53;98584.72;;;21.43;40.70
75717;BME280;64333;50.138;14.332;2023-05-07T11:52:20;98583.69;;;21.55;39.73
75717;BME280;64333;50.138;14.332;2023-05-07T11:54:53;98586.47;;;21.22;41.00
75717;BME280;64333;50.138;14.332;2023-05-07T11:57:20;98584.59;;;22.06;38.45
75717;BME280;64333;50.138;14.332;2023-05-07T11:59:45;98586.31;;;21.55;38.96
75717;BME280;64333;50.138;14.332;2023-05-07T12:02:15;98590.97;;;19.78;44.70
75717;BME280;64333;50.138;14.332;2023-05-07T12:04:41;98588.84;;;18.91;47.41
75717;BME280;64333;50.138;14.332;2023-05-07T12:07:15;98585.25;;;17.95;49.82
75717;BME280;64333;50.138;14.332;2023-05-07T12:09:41;98594.00;;;17.30;52.06
75717;BME280;64333;50.138;14.332;2023-05-07T12:12:07;98588.09;;;16.75;53.23
75717;BME280;64333;50.138;14.332;2023-05-07T12:14:32;98595.06;;;16.20;55.31
75717;BME280;64333;50.138;14.332;2023-05-07T12:17:00;98596.81;;;15.78;56.63
75717;BME280;64333;50.138;14.332;2023-05-07T12:19:29;98598.03;;;15.86;57.35
75717;BME280;64333;50.138;14.332;2023-05-07T12:21:55;98603.31;;;16.27;55.44
75717;BME280;64333;50.138;14.332;2023-05-07T12:24:21;98599.16;;;16.38;54.02
75717;BME280;64333;50.138;14.332;2023-05-07T12:26:47;98604.09;;;16.29;54.25
75717;BME280;64333;50.138;14.332;2023-05-07T12:29:13;98610.03;;;16.45;54.29
75717;BME280;64333;50.138;14.332;2023-05-07T12:31:41;98617.81;;;16.73;53.79
75717;BME280;64333;50.138;14.332;2023-05-07T12:34:07;98612.84;;;16.82;52.47
75717;BME280;64333;50.138;14.332;2023-05-07T12:36:38;98611.38;;;17.04;52.15
75717;BME280;64333;50.138;14.332;2023-05-07T12:39:08;98600.78;;;17.20;52.72
75717;BME280;64333;50.138;14.332;2023-05-07T12:41:56;98605.28;;;17.44;51.76
75717;BME280;64333;50.138;14.332;2023-05-07T12:44:24;98606.97;;;17.70;50.79
75717;BME280;64333;50.138;14.332;2023-05-07T12:46:51;98600.63;;;17.87;50.11
75717;BME280;64333;50.138;14.332;2023-05-07T12:49:16;98607.31;;;18.03;49.36
75717;BME280;64333;50.138;14.332;2023-05-07T12:51:43;98608.44;;;18.37;49.70
75717;BME280;64333;50.138;14.332;2023-05-07T12:54:09;98590.88;;;18.39;47.90
75717;BME280;64333;50.138;14.332;2023-05-07T12:56:37;98603.53;;;19.04;46.20
75717;BME280;64333;50.138;14.332;2023-05-07T12:59:02;98600.09;;;19.04;46.08
75717;BME280;64333;50.138;14.332;2023-05-07T13:01:29;98608.44;;;19.21;45.92
75717;BME280;64333;50.138;14.332;2023-05-07T13:04:03;98604.41;;;19.16;45.46